createdAt,value
2022-08-26T00:00:27.174Z,99866.84
2022-08-26T00:01:29.711Z,99871.75
2022-08-26T00:02:31.569Z,99870.09
2022-08-26T00:03:34.039Z,99873.72
2022-08-26T00:04:35.576Z,99871.19
2022-08-26T00:05:37.085Z,99872.03
2022-08-26T00:06:38.667Z,99869.56
2022-08-26T00:07:44.253Z,99872.41
2022-08-26T00:08:46.347Z,99867.91
2022-08-26T00:09:49.971Z,99867.09
2022-08-26T00:10:51.615Z,99870.34
2022-08-26T00:11:53.942Z,99871.56
2022-08-26T00:12:55.509Z,99865.84
2022-08-26T00:13:57.944Z,99867.88
2022-08-26T00:14:59.731Z,99868.69
2022-08-26T00:16:02.290Z,99877.69
2022-08-26T00:17:04.086Z,99871.94
2022-08-26T00:18:22.333Z,99872.69
2022-08-26T00:19:24.253Z,99866.50
2022-08-26T00:20:26.666Z,99866.06
2022-08-26T00:21:28.375Z,99868.94
2022-08-26T00:22:31.194Z,99864.44
2022-08-26T00:23:32.776Z,99869.31
2022-08-26T00:24:34.287Z,99862.78
2022-08-26T00:25:35.831Z,99867.66
2022-08-26T00:26:44.002Z,99864.34
2022-08-26T00:27:46.197Z,99871.69
2022-08-26T00:28:49.946Z,99871.69
2022-08-26T00:29:51.499Z,99865.53
2022-08-26T00:30:52.986Z,99863.88
2022-08-26T00:31:54.672Z,99869.16
2022-08-26T00:32:56.719Z,99868.34
2022-08-26T00:33:58.601Z,99869.56
2022-08-26T00:35:01.023Z,99875.63
2022-08-26T00:36:03.496Z,99867.91
2022-08-26T00:37:08.949Z,99867.06
2022-08-26T00:38:11.957Z,99871.94
2022-08-26T00:39:13.507Z,99864.19
2022-08-26T00:40:16.417Z,99870.69
2022-08-26T00:41:19.191Z,99864.91
2022-08-26T00:42:21.236Z,99869.41
2022-08-26T00:43:23.675Z,99865.72
2022-08-26T00:44:25.259Z,99865.72
2022-08-26T00:45:27.353Z,99862.44
2022-08-26T00:46:29.198Z,99861.22
2022-08-26T00:47:32.211Z,99868.16
2022-08-26T00:48:33.933Z,99870.63
2022-08-26T00:49:40.687Z,99862.44
2022-08-26T00:50:42.811Z,99868.53
2022-08-26T00:51:45.771Z,99864.03
2022-08-26T00:52:47.265Z,99870.56
2022-08-26T00:53:57.386Z,99868.94
2022-08-26T00:55:09.931Z,99876.69
2022-08-26T00:56:20.671Z,99869.28
2022-08-26T00:57:22.148Z,99867.63
2022-08-26T00:58:24.067Z,99866.38
2022-08-26T00:59:26.573Z,99868.81
2022-08-26T01:00:28.735Z,99867.97
2022-08-26T01:01:30.705Z,99867.94
2022-08-26T01:02:32.366Z,99870.38
2022-08-26T01:03:33.987Z,99868.69
2022-08-26T01:04:36.441Z,99872.75
2022-08-26T01:05:39.072Z,99871.09
2022-08-26T01:06:41.615Z,99873.91
2022-08-26T01:07:46.268Z,99868.53
2022-08-26T01:08:48.359Z,99866.50
2022-08-26T01:09:50.264Z,99873.44
2022-08-26T01:10:52.500Z,99869.28
2022-08-26T01:11:57.957Z,99875.81
2022-08-26T01:13:00.636Z,99872.16
2022-08-26T01:14:02.792Z,99860.69
2022-08-26T01:15:04.556Z,99875.81
2022-08-26T01:16:08.268Z,99875.81
2022-08-26T01:17:10.241Z,99874.19
2022-08-26T01:18:11.906Z,99872.53
2022-08-26T01:19:33.095Z,99875.41
2022-08-26T01:20:46.711Z,99872.53
2022-08-26T01:21:49.830Z,99874.56
2022-08-26T01:22:53.488Z,99874.97
2022-08-26T01:23:57.242Z,99876.59
2022-08-26T01:24:59.129Z,99863.50
2022-08-26T01:26:02.444Z,99873.75
2022-08-26T01:27:05.571Z,99879.47
2022-08-26T01:28:09.077Z,99879.03
2022-08-26T01:29:13.277Z,99874.09
2022-08-26T01:30:14.786Z,99883.88
2022-08-26T01:31:17.986Z,99878.16
2022-08-26T01:32:19.754Z,99876.50
2022-08-26T01:33:23.598Z,99880.09
2022-08-26T01:34:28.203Z,99875.59
2022-08-26T01:35:30.271Z,99874.38
2022-08-26T01:36:31.826Z,99869.88
2022-08-26T01:37:33.976Z,99876.41
2022-08-26T01:38:35.587Z,99870.69
2022-08-26T01:39:37.115Z,99876.81
2022-08-26T01:40:39.583Z,99878.03
2022-08-26T01:41:44.031Z,99886.16
2022-08-26T01:42:46.839Z,99872.69
2022-08-26T01:43:49.683Z,99879.22
2022-08-26T01:44:52.680Z,99875.53
2022-08-26T01:45:57.188Z,99871.88
2022-08-26T01:46:58.823Z,99874.72
2022-08-26T01:48:01.751Z,99875.53
2022-08-26T01:49:03.806Z,99877.59
2022-08-26T01:50:10.784Z,99875.94
2022-08-26T01:51:13.095Z,99874.72
2022-08-26T01:52:17.980Z,99871.47
2022-08-26T01:53:19.489Z,99872.69
2022-08-26T01:54:23.106Z,99869.81
2022-08-26T01:55:33.047Z,99878.41
2022-08-26T01:56:36.530Z,99875.53
2022-08-26T01:57:38.228Z,99884.50
2022-08-26T01:58:43.487Z,99871.44
2022-08-26T01:59:45.785Z,99868.50
2022-08-26T02:00:47.391Z,99870.53
2022-08-26T02:01:51.997Z,99870.06
2022-08-26T02:03:13.681Z,99867.91
2022-08-26T02:04:15.483Z,99875.66
2022-08-26T02:05:18.191Z,99878.53
2022-08-26T02:06:19.882Z,99866.63
2022-08-26T02:07:21.541Z,99876.44
2022-08-26T02:08:25.591Z,99876.44
2022-08-26T02:09:27.572Z,99871.88
2022-08-26T02:10:29.057Z,99876.34
2022-08-26T02:11:30.626Z,99871.00
2022-08-26T02:12:32.323Z,99875.91
2022-08-26T02:13:34.341Z,99874.25
2022-08-26T02:14:43.797Z,99874.63
2022-08-26T02:15:45.943Z,99875.03
2022-08-26T02:16:47.841Z,99876.66
2022-08-26T02:17:52.569Z,99877.06
2022-08-26T02:18:54.447Z,99875.03
2022-08-26T02:19:57.088Z,99879.91
2022-08-26T02:20:58.596Z,99883.16
2022-08-26T02:22:00.793Z,99876.63
2022-08-26T02:23:02.807Z,99880.69
2022-08-26T02:24:11.734Z,99880.69
2022-08-26T02:25:18.071Z,99876.97
2022-08-26T02:26:20.606Z,99883.53
2022-08-26T02:27:23.748Z,99876.63
2022-08-26T02:28:26.942Z,99875.31
2022-08-26T02:29:33.028Z,99872.84
2022-08-26T02:30:34.662Z,99880.16
2022-08-26T02:31:37.323Z,99882.19
2022-08-26T02:32:40.180Z,99880.53
2022-08-26T02:33:43.046Z,99874.81
2022-08-26T02:34:45.573Z,99874.75
2022-08-26T02:35:48.127Z,99873.94
2022-08-26T02:36:49.753Z,99870.25
2022-08-26T02:37:52.518Z,99868.22
2022-08-26T02:38:54.196Z,99862.03
2022-08-26T02:39:57.333Z,99877.53
2022-08-26T02:40:58.862Z,99868.97
2022-08-26T02:42:01.412Z,99873.84
2022-08-26T02:43:03.193Z,99875.06
2022-08-26T02:44:04.888Z,99876.19
2022-08-26T02:45:07.450Z,99877.41
2022-08-26T02:46:09.341Z,99880.66
2022-08-26T02:47:12.995Z,99878.63
2022-08-26T02:48:15.434Z,99872.06
2022-08-26T02:49:17.287Z,99876.97
2022-08-26T02:50:18.925Z,99876.16
2022-08-26T02:51:20.598Z,99879.81
2022-08-26T02:52:23.891Z,99882.69
2022-08-26T02:53:25.780Z,99881.84
2022-08-26T02:54:27.997Z,99884.72
2022-08-26T02:55:29.988Z,99887.97
2022-08-26T02:56:33.014Z,99885.09
2022-08-26T02:57:35.114Z,99884.63
2022-08-26T02:58:37.093Z,99890.72
2022-08-26T02:59:40.041Z,99885.38
2022-08-26T03:00:53.502Z,99884.94
2022-08-26T03:01:56.129Z,99882.47
2022-08-26T03:02:58.724Z,99891.88
2022-08-26T03:04:00.808Z,99889.00
2022-08-26T03:05:03.132Z,99887.34
2022-08-26T03:06:05.111Z,99888.19
2022-08-26T03:07:07.088Z,99880.44
2022-08-26T03:08:11.767Z,99881.25
2022-08-26T03:09:18.503Z,99880.00
2022-08-26T03:10:21.478Z,99873.06
2022-08-26T03:11:23.743Z,99881.66
2022-08-26T03:12:26.664Z,99877.13
2022-08-26T03:13:28.399Z,99858.19
2022-08-26T03:14:30.480Z,99877.13
2022-08-26T03:15:32.545Z,99880.00
2022-08-26T03:16:35.187Z,99877.88
2022-08-26T03:17:36.885Z,99870.16
2022-08-26T03:18:38.742Z,99876.69
2022-08-26T03:19:40.467Z,99880.72
2022-08-26T03:20:43.123Z,99878.25
2022-08-26T03:21:47.334Z,99876.53
2022-08-26T03:22:51.520Z,99876.53
2022-08-26T03:23:53.344Z,99886.38
2022-08-26T03:24:55.101Z,99882.25
2022-08-26T03:25:56.961Z,99880.56
2022-08-26T03:26:58.509Z,99882.25
2022-08-26T03:28:00.087Z,99879.41
2022-08-26T03:29:20.551Z,99881.03
2022-08-26T03:30:44.687Z,99876.97
2022-08-26T03:31:47.303Z,99881.88
2022-08-26T03:32:49.276Z,99870.81
2022-08-26T03:33:51.439Z,99869.16
2022-08-26T03:34:53.726Z,99876.53
2022-08-26T03:35:55.611Z,99870.72
2022-08-26T03:36:58.232Z,99869.91
2022-08-26T03:38:00.314Z,99879.69
2022-08-26T03:39:03.454Z,99876.34
2022-08-26T03:40:05.531Z,99877.09
2022-08-26T03:41:08.188Z,99879.59
2022-08-26T03:42:09.694Z,99882.81
2022-08-26T03:43:12.595Z,99878.31
2022-08-26T03:44:15.363Z,99879.13
2022-08-26T03:45:17.487Z,99879.53
2022-08-26T03:46:20.213Z,99874.19
2022-08-26T03:47:23.274Z,99877.88
2022-08-26T03:48:24.924Z,99873.75
2022-08-26T03:49:28.860Z,99878.63
2022-08-26T03:50:31.243Z,99872.47
2022-08-26T03:51:38.807Z,99865.09
2022-08-26T03:52:43.860Z,99869.63
2022-08-26T03:53:46.054Z,99863.44
2022-08-26T03:54:47.655Z,99866.28
2022-08-26T03:55:49.167Z,99876.06
2022-08-26T03:56:53.931Z,99863.00
2022-08-26T03:57:55.831Z,99872.75
2022-08-26T03:58:57.401Z,99870.28
2022-08-26T03:59:58.963Z,99884.94
2022-08-26T04:01:00.511Z,99878.78
2022-08-26T04:02:08.608Z,99878.34
2022-08-26T04:03:18.213Z,99872.63
2022-08-26T04:04:22.888Z,99884.88
2022-08-26T04:05:26.100Z,99884.88
2022-08-26T04:06:31.076Z,99878.34
2022-08-26T04:07:32.603Z,99875.47
2022-08-26T04:08:34.747Z,99878.69
2022-08-26T04:09:36.229Z,99876.69
2022-08-26T04:10:38.321Z,99869.28
2022-08-26T04:11:39.927Z,99875.81
2022-08-26T04:12:41.605Z,99882.38
2022-08-26T04:13:43.384Z,99875.00
2022-08-26T04:14:44.861Z,99882.38
2022-08-26T04:15:46.429Z,99881.53
2022-08-26T04:16:48.170Z,99882.38
2022-08-26T04:17:49.710Z,99886.06
2022-08-26T04:18:51.290Z,99872.97
2022-08-26T04:19:53.411Z,99880.72
2022-08-26T04:20:55.719Z,99884.38
2022-08-26T04:21:57.352Z,99881.47
2022-08-26T04:22:58.861Z,99876.59
2022-08-26T04:24:00.554Z,99868.84
2022-08-26T04:25:06.777Z,99876.13
2022-08-26T04:26:08.440Z,99878.16
2022-08-26T04:27:10.607Z,99872.44
2022-08-26T04:28:14.085Z,99873.66
2022-08-26T04:29:17.816Z,99874.88
2022-08-26T04:30:22.535Z,99880.56
2022-08-26T04:31:26.382Z,99878.91
2022-08-26T04:32:32.461Z,99881.78
2022-08-26T04:33:33.991Z,99877.28
2022-08-26T04:34:43.581Z,99871.94
2022-08-26T04:35:46.517Z,99873.13
2022-08-26T04:36:49.656Z,99876.34
2022-08-26T04:37:51.735Z,99883.69
2022-08-26T04:38:53.471Z,99882.88
2022-08-26T04:39:55.672Z,99881.22
2022-08-26T04:40:57.619Z,99880.84
2022-08-26T04:41:59.687Z,99879.19
2022-08-26T04:43:03.621Z,99882.88
2022-08-26T04:44:06.768Z,99879.69
2022-08-26T04:45:10.265Z,99885.38
2022-08-26T04:46:13.700Z,99883.34
2022-08-26T04:47:16.392Z,99887.88
2022-08-26T04:48:18.197Z,99889.50
2022-08-26T04:49:20.578Z,99880.94
2022-08-26T04:50:23.554Z,99892.00
2022-08-26T04:51:28.280Z,99886.28
2022-08-26T04:52:30.255Z,99896.88
2022-08-26T04:53:33.224Z,99895.28
2022-08-26T04:54:35.446Z,99890.78
2022-08-26T04:55:38.635Z,99890.34
2022-08-26T04:56:43.144Z,99887.94
2022-08-26T04:57:45.577Z,99886.28
2022-08-26T04:58:47.895Z,99886.28
2022-08-26T04:59:49.741Z,99886.28
2022-08-26T05:00:52.599Z,99892.00
2022-08-26T05:01:57.444Z,99879.75
2022-08-26T05:03:00.795Z,99887.09
2022-08-26T05:04:03.683Z,99893.63
2022-08-26T05:05:10.103Z,99886.72
2022-08-26T05:06:12.325Z,99893.25
2022-08-26T05:07:14.030Z,99887.16
2022-08-26T05:08:19.607Z,99886.34
2022-08-26T05:09:21.154Z,99897.38
2022-08-26T05:10:23.554Z,99893.72
2022-08-26T05:11:25.098Z,99888.00
2022-08-26T05:12:27.787Z,99885.97
2022-08-26T05:13:29.367Z,99895.34
2022-08-26T05:14:31.127Z,99894.97
2022-08-26T05:15:33.775Z,99894.97
2022-08-26T05:16:35.351Z,99894.97
2022-08-26T05:17:37.910Z,99893.81
2022-08-26T05:18:39.833Z,99895.47
2022-08-26T05:19:43.050Z,99899.53
2022-08-26T05:20:45.438Z,99896.28
2022-08-26T05:21:48.719Z,99901.16
2022-08-26T05:22:50.371Z,99903.19
2022-08-26T05:23:54.769Z,99905.22
2022-08-26T05:24:56.261Z,99909.72
2022-08-26T05:25:59.310Z,99917.47
2022-08-26T05:27:03.137Z,99900.25
2022-08-26T05:28:14.158Z,99909.25
2022-08-26T05:29:15.847Z,99912.09
2022-08-26T05:30:18.394Z,99916.16
2022-08-26T05:31:20.874Z,99911.66
2022-08-26T05:32:22.496Z,99907.97
2022-08-26T05:33:24.100Z,99914.50
2022-08-26T05:34:30.194Z,99911.66
2022-08-26T05:35:34.072Z,99914.91
2022-08-26T05:36:36.043Z,99914.91
2022-08-26T05:37:38.864Z,99912.88
2022-08-26T05:38:40.473Z,99914.50
2022-08-26T05:39:51.341Z,99910.00
2022-08-26T05:40:53.192Z,99914.06
2022-08-26T05:41:54.968Z,99913.69
2022-08-26T05:42:56.522Z,99917.38
2022-08-26T05:43:58.252Z,99917.38
2022-08-26T05:44:59.941Z,99921.88
2022-08-26T05:46:05.737Z,99923.53
2022-08-26T05:47:07.572Z,99921.16
2022-08-26T05:48:10.392Z,99923.19
2022-08-26T05:49:13.036Z,99932.19
2022-08-26T05:50:14.786Z,99928.50
2022-08-26T05:51:16.309Z,99928.97
2022-08-26T05:52:17.816Z,99922.03
2022-08-26T05:53:20.757Z,99926.94
2022-08-26T05:54:22.586Z,99926.56
2022-08-26T05:55:24.134Z,99928.19
2022-08-26T05:56:27.598Z,99927.00
2022-08-26T05:57:29.884Z,99932.31
2022-08-26T05:58:31.655Z,99925.78
2022-08-26T05:59:33.172Z,99939.69
2022-08-26T06:00:37.412Z,99932.44
2022-08-26T06:01:39.690Z,99934.91
2022-08-26T06:02:41.295Z,99931.66
2022-08-26T06:03:45.010Z,99934.16
2022-08-26T06:04:47.411Z,99928.50
2022-08-26T06:05:48.996Z,99937.53
2022-08-26T06:06:50.814Z,99932.28
2022-08-26T06:08:11.134Z,99941.75
2022-08-26T06:09:12.654Z,99931.63
2022-08-26T06:10:32.363Z,99937.41
2022-08-26T06:11:34.456Z,99939.53
2022-08-26T06:12:36.081Z,99937.94
2022-08-26T06:13:37.934Z,99936.34
2022-08-26T06:14:39.854Z,99931.09
2022-08-26T06:15:42.312Z,99932.75
2022-08-26T06:16:45.104Z,99927.47
2022-08-26T06:17:46.691Z,99939.00
2022-08-26T06:18:48.382Z,99937.41
2022-08-26T06:19:49.875Z,99935.00
2022-08-26T06:20:57.004Z,99939.94
2022-08-26T06:22:22.309Z,99936.72
2022-08-26T06:23:44.372Z,99938.84
2022-08-26T06:25:04.520Z,99934.38
2022-08-26T06:26:06.187Z,99940.16
2022-08-26T06:27:09.936Z,99939.41
2022-08-26T06:28:14.970Z,99936.63
2022-08-26T06:29:24.055Z,99942.78
2022-08-26T06:30:26.260Z,99935.47
2022-08-26T06:31:28.343Z,99939.59
2022-08-26T06:32:30.802Z,99932.31
2022-08-26T06:33:32.568Z,99944.22
2022-08-26T06:34:34.404Z,99947.13
2022-08-26T06:35:36.848Z,99938.59
2022-08-26T06:36:39.438Z,99938.69
2022-08-26T06:37:42.826Z,99942.03
2022-08-26T06:38:44.337Z,99941.25
2022-08-26T06:39:46.089Z,99937.19
2022-08-26T06:40:48.729Z,99944.19
2022-08-26T06:41:51.027Z,99939.72
2022-08-26T06:42:52.591Z,99943.00
2022-08-26T06:43:56.612Z,99942.28
2022-08-26T06:44:58.087Z,99938.66
2022-08-26T06:46:01.142Z,99948.50
2022-08-26T06:47:02.676Z,99948.94
2022-08-26T06:48:04.889Z,99937.56
2022-08-26T06:49:08.457Z,99946.22
2022-08-26T06:50:11.858Z,99938.88
2022-08-26T06:51:14.409Z,99943.00
2022-08-26T06:52:21.190Z,99943.06
2022-08-26T06:53:27.928Z,99941.09
2022-08-26T06:54:31.733Z,99939.94
2022-08-26T06:55:34.174Z,99941.22
2022-08-26T06:56:40.647Z,99947.84
2022-08-26T06:57:42.236Z,99932.75
2022-08-26T06:58:43.783Z,99939.81
2022-08-26T06:59:45.311Z,99943.97
2022-08-26T07:00:47.378Z,99940.34
2022-08-26T07:01:49.752Z,99943.25
2022-08-26T07:02:51.538Z,99942.47
2022-08-26T07:03:54.268Z,99944.56
2022-08-26T07:04:58.918Z,99942.59
2022-08-26T07:06:03.316Z,99949.56
2022-08-26T07:07:05.346Z,99938.97
2022-08-26T07:08:06.929Z,99946.44
2022-08-26T07:09:10.138Z,99937.50
2022-08-26T07:10:11.756Z,99939.56
2022-08-26T07:11:13.270Z,99942.50
2022-08-26T07:12:14.759Z,99945.41
2022-08-26T07:13:16.416Z,99944.63
2022-08-26T07:14:32.224Z,99938.59
2022-08-26T07:15:35.821Z,99934.94
2022-08-26T07:16:38.599Z,99941.94
2022-08-26T07:17:40.109Z,99945.31
2022-08-26T07:18:42.299Z,99944.13
2022-08-26T07:19:46.666Z,99943.34
2022-08-26T07:20:48.378Z,99949.13
2022-08-26T07:21:49.889Z,99945.50
2022-08-26T07:22:51.613Z,99945.53
2022-08-26T07:23:56.439Z,99946.00
2022-08-26T07:25:01.684Z,99943.19
2022-08-26T07:26:09.333Z,99952.25
2022-08-26T07:27:12.051Z,99944.50
2022-08-26T07:28:13.575Z,99948.25
2022-08-26T07:29:16.905Z,99939.69
2022-08-26T07:30:18.711Z,99939.72
2022-08-26T07:31:21.276Z,99933.22
2022-08-26T07:32:23.083Z,99942.72
2022-08-26T07:33:24.786Z,99943.56
2022-08-26T07:34:26.538Z,99946.47
2022-08-26T07:35:28.130Z,99942.84
2022-08-26T07:36:30.290Z,99934.25
2022-08-26T07:37:35.514Z,99950.66
2022-08-26T07:38:40.727Z,99948.28
2022-08-26T07:39:43.336Z,99945.44
2022-08-26T07:40:45.280Z,99946.28
2022-08-26T07:41:47.794Z,99952.91
2022-08-26T07:42:49.374Z,99946.38
2022-08-26T07:43:51.638Z,99955.84
2022-08-26T07:44:53.629Z,99952.16
2022-08-26T07:45:55.240Z,99951.41
2022-08-26T07:46:57.119Z,99959.63
2022-08-26T07:47:58.778Z,99954.72
2022-08-26T07:49:00.405Z,99948.25
2022-08-26T07:50:01.971Z,99962.22
2022-08-26T07:51:03.620Z,99950.75
2022-08-26T07:52:05.513Z,99948.78
2022-08-26T07:53:07.172Z,99949.63
2022-08-26T07:54:12.249Z,99951.69
2022-08-26T07:55:14.573Z,99957.06
2022-08-26T07:56:16.204Z,99957.09
2022-08-26T07:57:19.086Z,99957.94
2022-08-26T07:58:20.744Z,99949.31
2022-08-26T07:59:23.284Z,99949.38
2022-08-26T08:00:24.789Z,99953.09
2022-08-26T08:01:30.807Z,99945.31
2022-08-26T08:02:32.938Z,99947.41
2022-08-26T08:03:36.307Z,99937.56
2022-08-26T08:04:37.899Z,99946.22
2022-08-26T08:05:41.250Z,99946.25
2022-08-26T08:06:43.867Z,99947.94
2022-08-26T08:07:45.657Z,99948.75
2022-08-26T08:08:48.199Z,99947.94
2022-08-26T08:09:52.517Z,99959.09
2022-08-26T08:10:54.135Z,99942.25
2022-08-26T08:11:55.682Z,99948.00
2022-08-26T08:12:57.590Z,99952.56
2022-08-26T08:14:01.070Z,99947.66
2022-08-26T08:15:03.061Z,99950.53
2022-08-26T08:16:05.306Z,99952.22
2022-08-26T08:17:06.992Z,99952.63
2022-08-26T08:18:15.673Z,99948.53
2022-08-26T08:19:18.054Z,99944.44
2022-08-26T08:20:19.746Z,99944.09
2022-08-26T08:21:24.091Z,99951.91
2022-08-26T08:22:25.849Z,99941.22
2022-08-26T08:23:29.039Z,99939.19
2022-08-26T08:24:33.426Z,99949.06
2022-08-26T08:25:35.108Z,99941.28
2022-08-26T08:26:36.676Z,99942.09
2022-08-26T08:27:38.504Z,99944.16
2022-08-26T08:28:40.022Z,99954.06
2022-08-26T08:29:43.161Z,99950.75
2022-08-26T08:30:44.756Z,99951.59
2022-08-26T08:31:58.424Z,99947.91
2022-08-26T08:33:01.699Z,99935.97
2022-08-26T08:34:03.522Z,99945.06
2022-08-26T08:35:11.534Z,99940.97
2022-08-26T08:36:18.419Z,99952.06
2022-08-26T08:37:23.008Z,99951.66
2022-08-26T08:38:25.287Z,99945.09
2022-08-26T08:39:27.905Z,99947.53
2022-08-26T08:40:29.503Z,99942.63
2022-08-26T08:41:31.481Z,99931.91
2022-08-26T08:42:45.959Z,99944.25
2022-08-26T08:43:48.736Z,99941.81
2022-08-26T08:44:52.155Z,99946.72
2022-08-26T08:45:54.833Z,99936.84
2022-08-26T08:46:58.301Z,99937.28
2022-08-26T08:48:01.042Z,99934.41
2022-08-26T08:49:04.215Z,99936.03
2022-08-26T08:50:18.079Z,99935.22
2022-08-26T08:51:19.571Z,99941.78
2022-08-26T08:52:24.284Z,99938.06
2022-08-26T08:53:34.839Z,99939.69
2022-08-26T08:54:36.353Z,99933.13
2022-08-26T08:55:45.111Z,99945.06
2022-08-26T08:56:54.746Z,99938.06
2022-08-26T08:58:02.627Z,99936.81
2022-08-26T08:59:06.917Z,99938.44
2022-08-26T09:00:10.989Z,99946.25
2022-08-26T09:01:15.298Z,99940.50
2022-08-26T09:02:23.207Z,99939.25
2022-08-26T09:03:31.195Z,99940.91
2022-08-26T09:04:41.931Z,99938.44
2022-08-26T09:05:48.717Z,99936.81
2022-08-26T09:06:51.975Z,99941.72
2022-08-26T09:07:55.500Z,99937.59
2022-08-26T09:08:57.015Z,99941.28
2022-08-26T09:09:59.920Z,99937.59
2022-08-26T09:11:02.382Z,99941.69
2022-08-26T09:12:04.373Z,99946.69
2022-08-26T09:13:07.033Z,99947.88
2022-08-26T09:14:08.556Z,99938.03
2022-08-26T09:15:26.387Z,99945.84
2022-08-26T09:16:37.943Z,99941.69
2022-08-26T09:17:57.383Z,99948.28
2022-08-26T09:19:18.842Z,99940.84
2022-08-26T09:20:39.098Z,99944.13
2022-08-26T09:21:40.778Z,99942.91
2022-08-26T09:22:44.253Z,99939.16
2022-08-26T09:23:49.299Z,99933.78
2022-08-26T09:24:52.289Z,99945.75
2022-08-26T09:27:01.236Z,99940.34
2022-08-26T09:28:02.941Z,99934.97
2022-08-26T09:29:08.912Z,99932.91
2022-08-26T09:30:12.002Z,99938.22
2022-08-26T09:31:25.004Z,99934.94
2022-08-26T09:32:30.154Z,99932.44
2022-08-26T09:33:31.827Z,99935.69
2022-08-26T09:34:33.542Z,99934.84
2022-08-26T09:35:36.331Z,99930.69
2022-08-26T09:36:48.561Z,99930.25
2022-08-26T09:38:51.920Z,99926.03
2022-08-26T09:39:53.515Z,99924.38
2022-08-26T09:41:06.804Z,99922.66
2022-08-26T09:42:14.263Z,99925.53
2022-08-26T09:43:22.838Z,99925.50
2022-08-26T09:44:24.651Z,99919.69
2022-08-26T09:45:29.033Z,99919.25
2022-08-26T09:46:31.825Z,99923.31
2022-08-26T09:47:34.544Z,99925.38
2022-08-26T09:48:37.193Z,99928.19
2022-08-26T09:49:42.153Z,99926.50
2022-08-26T09:50:56.982Z,99927.69
2022-08-26T09:52:05.758Z,99917.72
2022-08-26T09:53:28.775Z,99915.22
2022-08-26T09:54:32.499Z,99919.31
2022-08-26T09:55:35.240Z,99916.72
2022-08-26T09:56:37.508Z,99916.69
2022-08-26T09:57:51.391Z,99916.19
2022-08-26T09:58:53.063Z,99904.91
2022-08-26T09:59:55.187Z,99908.94
2022-08-26T10:00:57.311Z,99908.88
2022-08-26T10:02:15.319Z,99901.44
2022-08-26T10:03:24.124Z,99906.34
2022-08-26T10:04:26.686Z,99898.00
2022-08-26T10:05:31.354Z,99894.94
2022-08-26T10:06:34.518Z,99894.47
2022-08-26T10:07:43.454Z,99896.50
2022-08-26T10:08:47.467Z,99891.81
2022-08-26T10:09:49.324Z,99882.19
2022-08-26T10:10:53.870Z,99886.66
2022-08-26T10:11:56.314Z,99882.91
2022-08-26T10:13:00.365Z,99883.25
2022-08-26T10:14:25.082Z,99879.38
2022-08-26T10:15:26.692Z,99883.00
2022-08-26T10:16:47.355Z,99878.31
2022-08-26T10:17:50.084Z,99871.50
2022-08-26T10:19:02.725Z,99881.78
2022-08-26T10:20:23.562Z,99867.56
2022-08-26T10:21:27.651Z,99875.69
2022-08-26T10:22:41.098Z,99865.69
2022-08-26T10:23:43.768Z,99860.66
2022-08-26T10:24:53.139Z,99857.22
2022-08-26T10:25:58.993Z,99857.91
2022-08-26T10:27:33.980Z,99854.06
2022-08-26T10:28:44.409Z,99863.91
2022-08-26T10:29:46.596Z,99859.22
2022-08-26T10:31:10.731Z,99854.13
2022-08-26T10:32:26.320Z,99854.41
2022-08-26T10:33:29.473Z,99848.00
2022-08-26T10:34:32.081Z,99854.41
2022-08-26T10:35:34.008Z,99850.94
2022-08-26T10:37:13.587Z,99849.50
2022-08-26T10:38:12.104Z,99845.56
2022-08-26T10:39:15.003Z,99849.56
2022-08-26T10:40:28.448Z,99849.03
2022-08-26T10:41:32.222Z,99849.59
2022-08-26T10:42:43.226Z,99851.47
2022-08-26T10:44:02.514Z,99849.19
2022-08-26T10:45:11.781Z,99848.84
2022-08-26T10:46:17.082Z,99850.56
2022-08-26T10:47:25.660Z,99850.66
2022-08-26T10:48:35.232Z,99864.84
2022-08-26T10:49:36.871Z,99859.94
2022-08-26T10:50:39.981Z,99857.19
2022-08-26T10:51:47.850Z,99868.91
2022-08-26T10:52:55.073Z,99856.94
2022-08-26T10:53:56.647Z,99857.28
2022-08-26T10:55:28.323Z,99864.28
2022-08-26T10:56:49.015Z,99856.69
2022-08-26T10:57:59.458Z,99858.91
2022-08-26T10:59:10.416Z,99864.38
2022-08-26T11:00:34.201Z,99859.13
2022-08-26T11:01:46.972Z,99856.78
2022-08-26T11:02:52.450Z,99850.78
2022-08-26T11:03:58.111Z,99848.25
2022-08-26T11:05:04.391Z,99837.91
2022-08-26T11:06:24.272Z,99846.09
2022-08-26T11:07:32.692Z,99839.88
2022-08-26T11:08:34.252Z,99848.59
2022-08-26T11:09:45.848Z,99838.72
2022-08-26T11:10:47.309Z,99835.44
2022-08-26T11:11:50.813Z,99843.81
2022-08-26T11:12:52.314Z,99840.22
2022-08-26T11:13:57.962Z,99837.88
2022-08-26T11:15:00.562Z,99832.78
2022-08-26T11:16:03.068Z,99839.56
2022-08-26T11:17:08.275Z,99834.13
2022-08-26T11:18:11.478Z,99839.72
2022-08-26T11:19:50.878Z,99842.69
2022-08-26T11:20:56.266Z,99840.31
2022-08-26T11:22:05.175Z,99835.44
2022-08-26T11:23:12.513Z,99834.75
2022-08-26T11:24:32.941Z,99833.59
2022-08-26T11:25:37.696Z,99829.19
2022-08-26T11:26:56.239Z,99821.31
2022-08-26T11:27:58.872Z,99819.31
2022-08-26T11:29:00.416Z,99831.00
2022-08-26T11:30:13.939Z,99829.38
2022-08-26T11:31:25.206Z,99831.00
2022-08-26T11:32:44.947Z,99819.03
2022-08-26T11:33:50.992Z,99828.56
2022-08-26T11:34:57.026Z,99820.31
2022-08-26T11:35:59.874Z,99821.94
2022-08-26T11:37:13.124Z,99816.25
2022-08-26T11:38:14.649Z,99818.47
2022-08-26T11:39:16.647Z,99818.28
2022-08-26T11:40:25.136Z,99812.53
2022-08-26T11:41:29.802Z,99816.69
2022-08-26T11:42:41.669Z,99808.47
2022-08-26T11:43:45.726Z,99809.28
2022-08-26T11:44:49.371Z,99802.66
2022-08-26T11:46:04.547Z,99810.09
2022-08-26T11:47:11.492Z,99809.34
2022-08-26T11:48:22.016Z,99802.00
2022-08-26T11:49:26.013Z,99805.28
2022-08-26T11:50:28.104Z,99799.47
2022-08-26T11:51:31.568Z,99789.50
2022-08-26T11:52:33.473Z,99796.03
2022-08-26T11:53:42.626Z,99793.59
2022-08-26T11:55:20.084Z,99795.31
2022-08-26T11:56:31.531Z,99791.00
2022-08-26T11:57:34.465Z,99790.63
2022-08-26T11:58:40.832Z,99791.00
2022-08-26T11:59:43.549Z,99782.22
2022-08-26T12:00:58.019Z,99792.91
2022-08-26T12:01:59.538Z,99786.25
2022-08-26T12:03:02.446Z,99785.34
2022-08-26T12:04:05.011Z,99766.41
2022-08-26T12:05:06.943Z,99778.63
2022-08-26T12:06:14.471Z,99779.41
2022-08-26T12:07:16.282Z,99780.22
2022-08-26T12:08:21.578Z,99785.56
2022-08-26T12:09:27.232Z,99777.59
2022-08-26T12:10:32.734Z,99774.16
2022-08-26T12:11:35.702Z,99778.19
2022-08-26T12:12:40.296Z,99777.72
2022-08-26T12:13:42.711Z,99777.28
2022-08-26T12:14:44.331Z,99778.03
2022-08-26T12:15:51.583Z,99779.59
2022-08-26T12:16:57.214Z,99774.53
2022-08-26T12:18:00.361Z,99777.72
2022-08-26T12:19:01.929Z,99774.72
2022-08-26T12:20:06.222Z,99770.91
2022-08-26T12:21:12.565Z,99774.53
2022-08-26T12:22:16.908Z,99772.41
2022-08-26T12:23:24.558Z,99772.31
2022-08-26T12:24:26.221Z,99777.19
2022-08-26T12:25:28.106Z,99774.22
2022-08-26T12:26:37.558Z,99779.13
2022-08-26T12:27:41.530Z,99767.06
2022-08-26T12:28:44.175Z,99765.41
2022-08-26T12:29:48.457Z,99762.41
2022-08-26T12:31:00.975Z,99759.44
2022-08-26T12:32:09.448Z,99749.84
2022-08-26T12:33:22.396Z,99758.47
2022-08-26T12:34:25.791Z,99750.13
2022-08-26T12:35:28.816Z,99753.84
2022-08-26T12:36:32.355Z,99757.09
2022-08-26T12:37:34.371Z,99757.09
2022-08-26T12:38:37.215Z,99764.06
2022-08-26T12:39:39.724Z,99763.66